createdAt,value
2023-04-11T00:01:14.659Z,92.73
2023-04-11T00:03:41.267Z,92.36
2023-04-11T00:06:07.507Z,91.91
2023-04-11T00:08:33.920Z,91.84
2023-04-11T00:11:00.319Z,91.84
2023-04-11T00:13:26.704Z,91.81
2023-04-11T00:15:53.071Z,91.73
2023-04-11T00:18:19.447Z,91.88
2023-04-11T00:20:45.899Z,92.12
2023-04-11T00:23:12.291Z,92.26
2023-04-11T00:25:38.674Z,92.32
2023-04-11T00:28:05.143Z,92.15
2023-04-11T00:30:31.559Z,92.28
2023-04-11T00:32:57.977Z,92.37
2023-04-11T00:35:24.330Z,92.37
2023-04-11T00:37:50.705Z,92.55
2023-04-11T00:40:17.169Z,92.56
2023-04-11T00:42:43.600Z,92.77
2023-04-11T00:45:09.999Z,92.95
2023-04-11T00:47:36.438Z,93.01
2023-04-11T00:50:02.743Z,93.21
2023-04-11T00:52:29.114Z,93.61
2023-04-11T00:54:55.488Z,93.72
2023-04-11T00:57:21.922Z,93.78
2023-04-11T00:59:48.389Z,93.89
2023-04-11T01:02:14.796Z,93.95
2023-04-11T01:04:41.144Z,94.05
2023-04-11T01:07:07.511Z,93.97
2023-04-11T01:09:33.889Z,94.10
2023-04-11T01:12:00.302Z,94.16
2023-04-11T01:14:26.682Z,94.17
2023-04-11T01:16:53.106Z,94.22
2023-04-11T01:19:19.497Z,94.25
2023-04-11T01:21:45.903Z,94.36
2023-04-11T01:24:12.279Z,94.27
2023-04-11T01:26:38.759Z,94.25
2023-04-11T01:29:05.115Z,94.22
2023-04-11T01:31:32.828Z,94.44
2023-04-11T01:33:57.945Z,94.52
2023-04-11T01:36:24.396Z,94.60
2023-04-11T01:38:50.798Z,94.71
2023-04-11T01:41:17.217Z,94.53
2023-04-11T01:43:43.578Z,94.28
2023-04-11T01:46:10.006Z,94.50
2023-04-11T01:48:36.524Z,94.51
2023-04-11T01:51:02.767Z,94.33
2023-04-11T01:53:29.141Z,94.13
2023-04-11T01:55:55.558Z,93.94
2023-04-11T01:58:21.975Z,94.08
2023-04-11T02:00:48.376Z,94.14
2023-04-11T02:03:14.966Z,94.16
2023-04-11T02:05:41.198Z,94.09
2023-04-11T02:08:07.561Z,93.98
2023-04-11T02:10:33.949Z,93.93
2023-04-11T02:13:00.348Z,93.98
2023-04-11T02:15:26.797Z,93.83
2023-04-11T02:17:53.208Z,93.67
2023-04-11T02:20:19.580Z,93.21
2023-04-11T02:22:45.969Z,93.25
2023-04-11T02:25:12.351Z,93.45
2023-04-11T02:27:38.705Z,93.65
2023-04-11T02:30:05.114Z,93.81
2023-04-11T02:32:31.548Z,93.86
2023-04-11T02:34:57.939Z,94.11
2023-04-11T02:37:24.365Z,94.04
2023-04-11T02:39:50.741Z,94.08
2023-04-11T02:42:17.162Z,93.99
2023-04-11T02:44:43.561Z,94.00
2023-04-11T02:47:09.970Z,94.01
2023-04-11T02:49:36.353Z,94.10
2023-04-11T02:52:02.741Z,94.41
2023-04-11T02:54:29.109Z,94.50
2023-04-11T02:56:55.486Z,94.60
2023-04-11T02:59:21.955Z,94.58
2023-04-11T03:01:48.383Z,94.45
2023-04-11T03:04:14.732Z,94.60
2023-04-11T03:06:41.106Z,94.35
2023-04-11T03:09:07.469Z,94.51
2023-04-11T03:11:33.895Z,94.42
2023-04-11T03:14:00.259Z,94.22
2023-04-11T03:16:26.723Z,94.11
2023-04-11T03:18:53.144Z,94.13
2023-04-11T03:21:19.406Z,94.07
2023-04-11T03:23:45.779Z,93.92
2023-04-11T03:26:12.207Z,93.85
2023-04-11T03:28:38.640Z,93.74
2023-04-11T03:31:05.080Z,93.66
2023-04-11T03:33:31.486Z,93.75
2023-04-11T03:35:57.914Z,93.65
2023-04-11T03:38:24.267Z,93.51
2023-04-11T03:40:50.677Z,93.24
2023-04-11T03:43:17.051Z,93.32
2023-04-11T03:45:43.417Z,93.71
2023-04-11T03:48:09.862Z,93.48
2023-04-11T03:50:36.276Z,93.50
2023-04-11T03:53:02.699Z,93.66
2023-04-11T03:55:29.107Z,93.51
2023-04-11T03:57:55.506Z,93.57
2023-04-11T04:00:22.138Z,93.47
2023-04-11T04:02:48.745Z,93.34
2023-04-11T04:05:14.893Z,92.95
2023-04-11T04:07:41.321Z,92.90
2023-04-11T04:10:07.754Z,92.83
2023-04-11T04:12:34.155Z,92.91
2023-04-11T04:15:00.539Z,93.03
2023-04-11T04:17:26.987Z,93.02
2023-04-11T04:19:53.385Z,92.84
2023-04-11T04:22:19.737Z,92.81
2023-04-11T04:24:46.402Z,92.80
2023-04-11T04:27:12.968Z,92.84
2023-04-11T04:29:39.598Z,92.84
2023-04-11T04:32:05.988Z,92.59
2023-04-11T04:34:32.259Z,92.60
2023-04-11T04:36:58.631Z,92.71
2023-04-11T04:39:25.115Z,92.89
2023-04-11T04:41:51.568Z,92.84
2023-04-11T04:44:18.005Z,92.58
2023-04-11T04:46:44.936Z,92.71
2023-04-11T04:49:11.328Z,92.79
2023-04-11T04:51:37.684Z,92.76
2023-04-11T04:54:04.067Z,92.59
2023-04-11T04:56:30.788Z,92.58
2023-04-11T04:58:57.206Z,92.58
2023-04-11T05:01:23.614Z,92.44
2023-04-11T05:03:50.023Z,92.54
2023-04-11T05:06:17.420Z,92.11
2023-04-11T05:08:43.072Z,91.96
2023-04-11T05:11:09.484Z,91.91
2023-04-11T05:13:35.919Z,91.62
2023-04-11T05:16:02.291Z,91.54
2023-04-11T05:18:28.892Z,91.39
2023-04-11T05:20:55.265Z,91.30
2023-04-11T05:23:21.669Z,91.23
2023-04-11T05:25:48.064Z,91.00
2023-04-11T05:28:14.440Z,90.52
2023-04-11T05:30:41.073Z,90.33
2023-04-11T05:33:07.612Z,90.34
2023-04-11T05:35:33.869Z,90.25
2023-04-11T05:38:00.212Z,89.65
2023-04-11T05:40:26.743Z,89.21
2023-04-11T05:42:53.152Z,88.90
2023-04-11T05:45:19.576Z,88.40
2023-04-11T05:47:46.233Z,88.06
2023-04-11T05:50:12.720Z,87.94
2023-04-11T05:52:39.142Z,87.68
2023-04-11T05:55:05.552Z,87.38
2023-04-11T05:57:31.920Z,87.16
2023-04-11T05:59:58.339Z,86.15
2023-04-11T06:02:25.020Z,86.07
2023-04-11T06:04:51.282Z,85.70
2023-04-11T06:07:17.651Z,85.66
2023-04-11T06:09:44.124Z,84.77
2023-04-11T06:12:10.632Z,84.71
2023-04-11T06:14:39.596Z,84.48
2023-04-11T06:17:03.383Z,83.91
2023-04-11T06:19:29.802Z,83.59
2023-04-11T06:21:56.660Z,81.83
2023-04-11T06:24:23.057Z,80.67
2023-04-11T06:26:49.498Z,79.09
2023-04-11T06:29:15.877Z,78.24
2023-04-11T06:31:42.520Z,76.38
2023-04-11T06:34:08.840Z,74.63
2023-04-11T06:36:35.217Z,72.75
2023-04-11T06:39:01.665Z,71.06
2023-04-11T06:41:28.218Z,71.39
2023-04-11T06:43:54.815Z,71.78
2023-04-11T06:46:21.029Z,71.05
2023-04-11T06:48:47.618Z,70.70
2023-04-11T06:51:14.210Z,70.19
2023-04-11T06:53:41.732Z,71.69
2023-04-11T06:56:08.146Z,73.23
2023-04-11T06:58:34.550Z,74.60
2023-04-11T07:01:00.919Z,76.23
2023-04-11T07:03:27.381Z,76.50
2023-04-11T07:05:53.688Z,76.28
2023-04-11T07:08:20.045Z,76.51
2023-04-11T07:10:46.544Z,76.09
2023-04-11T07:13:12.961Z,76.69
2023-04-11T07:15:39.434Z,75.55
2023-04-11T07:18:05.825Z,75.66
2023-04-11T07:20:32.180Z,75.39
2023-04-11T07:22:58.626Z,75.02
2023-04-11T07:25:25.042Z,75.02
2023-04-11T07:27:51.683Z,73.16
2023-04-11T07:30:18.271Z,73.27
2023-04-11T07:32:44.802Z,72.38
2023-04-11T07:35:11.169Z,71.77
2023-04-11T07:37:38.897Z,70.48
2023-04-11T07:40:05.417Z,70.11
2023-04-11T07:42:31.890Z,70.94
2023-04-11T07:44:58.387Z,71.45
2023-04-11T07:47:24.720Z,70.65
2023-04-11T07:49:51.144Z,70.13
2023-04-11T07:52:17.549Z,70.25
2023-04-11T07:54:44.050Z,70.42
2023-04-11T07:57:10.450Z,70.49
2023-04-11T07:59:37.448Z,68.83
2023-04-11T08:02:07.901Z,68.14
2023-04-11T08:04:34.762Z,65.37
2023-04-11T08:07:00.792Z,64.25
2023-04-11T08:09:27.279Z,65.14
2023-04-11T08:11:54.059Z,64.55
2023-04-11T08:14:20.402Z,65.75
2023-04-11T08:16:47.003Z,66.07
2023-04-11T08:19:13.430Z,66.21
2023-04-11T08:21:44.409Z,67.28
2023-04-11T08:24:10.813Z,68.01
2023-04-11T08:26:37.323Z,68.00
2023-04-11T08:29:03.777Z,65.85
2023-04-11T08:31:30.214Z,65.94
2023-04-11T08:33:59.124Z,65.50
2023-04-11T08:36:23.113Z,64.24
2023-04-11T08:38:49.550Z,63.12
2023-04-11T08:41:15.936Z,62.07
2023-04-11T08:43:42.325Z,62.23
2023-04-11T08:46:08.817Z,60.51
2023-04-11T08:48:35.123Z,59.78
2023-04-11T08:51:01.574Z,61.19
2023-04-11T08:53:28.345Z,61.85
2023-04-11T08:55:54.780Z,60.06
2023-04-11T08:58:21.208Z,59.21
2023-04-11T09:00:47.778Z,57.59
2023-04-11T09:03:14.570Z,56.29
2023-04-11T09:05:40.918Z,55.19
2023-04-11T09:08:07.307Z,56.07
2023-04-11T09:10:33.714Z,57.19
2023-04-11T09:13:00.288Z,56.59
2023-04-11T09:15:26.777Z,56.67
2023-04-11T09:17:53.227Z,57.43
2023-04-11T09:20:19.597Z,57.39
2023-04-11T09:22:45.976Z,58.72
2023-04-11T09:25:12.435Z,58.46
2023-04-11T09:27:38.884Z,56.53
2023-04-11T09:30:05.261Z,58.63
2023-04-11T09:32:31.931Z,59.07
2023-04-11T09:34:58.285Z,60.10
2023-04-11T09:37:24.718Z,60.46
2023-04-11T09:39:51.055Z,61.40
2023-04-11T09:42:17.494Z,62.11
2023-04-11T09:44:44.022Z,62.47
2023-04-11T09:47:10.556Z,62.55
2023-04-11T09:49:36.985Z,61.21
2023-04-11T09:52:03.688Z,62.16
2023-04-11T09:54:30.076Z,62.00
2023-04-11T09:56:56.452Z,61.92
2023-04-11T09:59:23.145Z,61.57
2023-04-11T10:01:52.963Z,61.23
2023-04-11T10:04:19.294Z,61.62
2023-04-11T10:06:45.676Z,60.91
2023-04-11T10:09:12.237Z,59.80
2023-04-11T10:11:38.656Z,58.86
2023-04-11T10:14:05.081Z,59.20
2023-04-11T10:16:31.788Z,58.15
2023-04-11T10:18:58.292Z,58.31
2023-04-11T10:21:24.564Z,54.75
2023-04-11T10:23:51.046Z,55.43
2023-04-11T10:26:17.413Z,55.70
2023-04-11T10:28:43.791Z,56.50
2023-04-11T10:31:10.393Z,56.15
2023-04-11T10:33:36.567Z,53.47
2023-04-11T10:36:03.023Z,52.08
2023-04-11T10:38:29.319Z,51.11
2023-04-11T10:40:55.749Z,47.03
2023-04-11T10:43:22.165Z,46.28
2023-04-11T10:45:48.535Z,45.76
2023-04-11T10:48:14.974Z,44.96
2023-04-11T10:50:41.353Z,43.55
2023-04-11T10:53:07.770Z,42.69
2023-04-11T10:55:34.247Z,42.38
2023-04-11T10:58:00.667Z,43.33
2023-04-11T11:00:27.044Z,43.54
2023-04-11T11:02:53.623Z,43.40
2023-04-11T11:05:19.871Z,42.94
2023-04-11T11:07:46.258Z,42.55
2023-04-11T11:10:12.640Z,41.51
2023-04-11T11:12:38.996Z,44.05
2023-04-11T11:15:05.377Z,46.00
2023-04-11T11:17:31.759Z,47.95
2023-04-11T11:19:58.170Z,49.24
2023-04-11T11:22:24.561Z,51.68
2023-04-11T11:24:50.983Z,51.50
2023-04-11T11:27:17.784Z,51.21
2023-04-11T11:29:44.192Z,51.41
2023-04-11T11:32:10.674Z,50.49
2023-04-11T11:34:37.057Z,47.65
2023-04-11T11:37:03.438Z,45.68
2023-04-11T11:39:29.839Z,45.12
2023-04-11T11:41:56.295Z,45.54
2023-04-11T11:44:22.768Z,44.28
2023-04-11T11:46:49.149Z,45.71
2023-04-11T11:49:15.744Z,47.79
2023-04-11T11:51:42.101Z,47.79
2023-04-11T11:54:08.478Z,49.41
2023-04-11T11:56:34.925Z,47.95
2023-04-11T11:59:01.541Z,45.34
2023-04-11T12:01:27.880Z,46.67
2023-04-11T12:03:54.672Z,46.73
2023-04-11T12:06:20.932Z,46.79
2023-04-11T12:08:47.563Z,47.50
2023-04-11T12:11:14.885Z,48.27
2023-04-11T12:13:41.377Z,47.81
2023-04-11T12:16:07.909Z,46.41
2023-04-11T12:18:34.313Z,45.50
2023-04-11T12:21:00.735Z,43.64
2023-04-11T12:23:27.144Z,43.52
2023-04-11T12:25:53.593Z,44.05
2023-04-11T12:28:22.352Z,44.59
2023-04-11T12:30:50.953Z,44.55
2023-04-11T12:33:17.334Z,46.15
2023-04-11T12:35:45.802Z,46.09
2023-04-11T12:38:14.972Z,46.84
2023-04-11T12:40:38.609Z,46.85
2023-04-11T12:43:05.093Z,46.53
2023-04-11T12:45:31.533Z,46.06
2023-04-11T12:47:57.943Z,45.26
2023-04-11T12:50:24.586Z,45.26
2023-04-11T12:52:50.861Z,45.15
2023-04-11T12:55:17.268Z,46.15
2023-04-11T12:57:43.709Z,44.99
2023-04-11T13:00:10.167Z,44.61
2023-04-11T13:02:42.869Z,44.60
2023-04-11T13:05:03.236Z,44.75
2023-04-11T13:07:29.641Z,44.58
2023-04-11T13:09:56.065Z,44.85
2023-04-11T13:12:22.425Z,45.11
2023-04-11T13:14:48.981Z,44.52
2023-04-11T13:17:15.347Z,43.96
2023-04-11T13:19:41.766Z,44.77
2023-04-11T13:22:08.203Z,44.98
2023-04-11T13:24:34.635Z,45.00
2023-04-11T13:27:00.998Z,45.08
2023-04-11T13:29:27.454Z,45.56
2023-04-11T13:31:53.872Z,46.09
2023-04-11T13:34:20.234Z,46.08
2023-04-11T13:36:46.756Z,46.72
2023-04-11T13:39:13.430Z,47.20
2023-04-11T13:41:39.780Z,47.37
2023-04-11T13:44:06.191Z,47.12
2023-04-11T13:46:32.582Z,47.34
2023-04-11T13:48:59.293Z,47.43
2023-04-11T13:51:25.597Z,47.51
2023-04-11T13:53:52.010Z,47.62
2023-04-11T13:56:18.396Z,47.56
2023-04-11T13:58:44.825Z,47.72
2023-04-11T14:01:11.258Z,47.52
2023-04-11T14:03:37.932Z,47.70
2023-04-11T14:06:04.131Z,47.70
2023-04-11T14:08:30.512Z,48.23
2023-04-11T14:10:57.255Z,48.78
2023-04-11T14:13:23.807Z,49.51
2023-04-11T14:16:05.009Z,49.26
2023-04-11T14:18:16.645Z,49.36
2023-04-11T14:20:43.153Z,49.16
2023-04-11T14:23:09.596Z,48.81
2023-04-11T14:25:36.409Z,48.91
2023-04-11T14:28:02.806Z,48.58
2023-04-11T14:30:29.507Z,48.94
2023-04-11T14:32:55.821Z,48.87
2023-04-11T14:35:22.240Z,49.13
2023-04-11T14:37:48.606Z,49.40
2023-04-11T14:40:15.111Z,49.83
2023-04-11T14:42:41.526Z,49.38
2023-04-11T14:45:07.999Z,49.41
2023-04-11T14:47:34.518Z,49.74
2023-04-11T14:50:00.931Z,50.37
2023-04-11T14:52:27.635Z,50.52
2023-04-11T14:54:54.049Z,51.23
2023-04-11T14:57:20.447Z,51.21
2023-04-11T14:59:46.842Z,51.45
2023-04-11T15:02:13.391Z,51.74
2023-04-11T15:04:39.707Z,52.08
2023-04-11T15:07:06.091Z,52.08
2023-04-11T15:09:32.508Z,52.39
2023-04-11T15:11:58.935Z,52.22
2023-04-11T15:14:25.289Z,52.43
2023-04-11T15:16:51.964Z,52.27
2023-04-11T15:19:18.323Z,52.33
2023-04-11T15:21:45.086Z,51.96
2023-04-11T15:24:11.451Z,52.23
2023-04-11T15:26:38.001Z,52.33
2023-04-11T15:29:04.451Z,52.96
2023-04-11T15:31:31.062Z,53.09
2023-04-11T15:33:57.750Z,53.08
2023-04-11T15:36:24.109Z,53.29
2023-04-11T15:38:50.388Z,53.37
2023-04-11T15:41:16.794Z,53.51
2023-04-11T15:43:43.196Z,53.30
2023-04-11T15:46:09.686Z,53.67
2023-04-11T15:48:36.275Z,53.65
2023-04-11T15:51:02.686Z,53.87
2023-04-11T15:53:29.157Z,54.14
2023-04-11T15:55:57.948Z,54.61
2023-04-11T15:58:24.592Z,54.46
2023-04-11T16:00:51.127Z,54.81
2023-04-11T16:03:17.662Z,54.79
2023-04-11T16:05:44.136Z,55.18
2023-04-11T16:08:10.537Z,55.24
2023-04-11T16:10:37.032Z,55.38
2023-04-11T16:13:03.502Z,55.20
2023-04-11T16:15:30.618Z,54.94
2023-04-11T16:17:58.024Z,55.06
2023-04-11T16:20:24.409Z,55.36
2023-04-11T16:22:50.874Z,55.85
2023-04-11T16:25:17.513Z,56.16
2023-04-11T16:27:45.304Z,56.45
2023-04-11T16:30:11.689Z,56.52
2023-04-11T16:32:38.610Z,56.40
2023-04-11T16:35:05.193Z,56.34
2023-04-11T16:37:31.592Z,56.61
2023-04-11T16:40:00.355Z,56.73
2023-04-11T16:42:26.744Z,56.89
2023-04-11T16:44:53.119Z,57.01
2023-04-11T16:47:24.575Z,56.92
2023-04-11T16:49:51.198Z,57.09
2023-04-11T16:52:17.772Z,57.31
2023-04-11T16:54:45.411Z,57.30
2023-04-11T16:57:12.228Z,57.43
2023-04-11T16:59:38.695Z,57.54
2023-04-11T17:02:05.799Z,57.79
2023-04-11T17:04:32.285Z,57.97
2023-04-11T17:06:58.526Z,58.14
2023-04-11T17:09:24.910Z,58.34
2023-04-11T17:11:51.372Z,58.59
2023-04-11T17:14:17.771Z,58.83
2023-04-11T17:16:44.418Z,58.98
2023-04-11T17:19:10.742Z,59.22
2023-04-11T17:21:37.113Z,59.13
2023-04-11T17:24:03.488Z,59.47
2023-04-11T17:26:29.886Z,59.58
2023-04-11T17:28:56.571Z,59.90
2023-04-11T17:31:23.353Z,60.07
2023-04-11T17:33:49.692Z,60.49
2023-04-11T17:36:16.157Z,60.62
2023-04-11T17:38:42.526Z,61.00
2023-04-11T17:43:35.441Z,61.57
2023-04-11T17:46:01.892Z,61.75
2023-04-11T17:48:28.267Z,61.95
2023-04-11T17:50:54.843Z,62.13
2023-04-11T17:53:21.256Z,62.28
2023-04-11T17:55:47.619Z,62.54
2023-04-11T17:58:13.998Z,62.81
2023-04-11T18:00:54.811Z,63.09
2023-04-11T18:03:06.902Z,63.24
2023-04-11T18:05:33.202Z,63.29
2023-04-11T18:07:59.647Z,63.36
2023-04-11T18:10:26.015Z,63.28
2023-04-11T18:12:52.405Z,63.36
2023-04-11T18:15:18.900Z,63.45
2023-04-11T18:17:45.330Z,63.59
2023-04-11T18:20:11.914Z,63.71
2023-04-11T18:22:38.302Z,63.87
2023-04-11T18:25:04.917Z,64.09
2023-04-11T18:27:32.013Z,64.45
2023-04-11T18:29:58.380Z,64.71
2023-04-11T18:32:27.446Z,65.01
2023-04-11T18:34:52.046Z,65.28
2023-04-11T18:37:17.903Z,65.55
2023-04-11T18:39:44.335Z,65.78
2023-04-11T18:42:11.608Z,66.04
2023-04-11T18:44:37.957Z,66.39
2023-04-11T18:47:06.029Z,66.45
2023-04-11T18:49:31.714Z,66.64
2023-04-11T18:51:58.324Z,66.76
2023-04-11T18:54:24.694Z,67.03
2023-04-11T18:56:52.981Z,67.17
2023-04-11T18:59:18.819Z,67.50
2023-04-11T19:01:44.177Z,67.55
2023-04-11T19:04:12.113Z,67.71
2023-04-11T19:06:38.002Z,68.05
2023-04-11T19:09:07.570Z,68.18
2023-04-11T19:11:38.591Z,68.46
2023-04-11T19:14:12.740Z,68.81
2023-04-11T19:16:39.235Z,69.06
2023-04-11T19:19:05.574Z,69.25
2023-04-11T19:21:32.031Z,69.47
2023-04-11T19:23:58.627Z,69.66
2023-04-11T19:26:24.825Z,69.84
2023-04-11T19:28:51.177Z,70.05
2023-04-11T19:31:17.640Z,70.18
2023-04-11T19:33:44.131Z,70.36
2023-04-11T19:36:10.671Z,70.52
2023-04-11T19:38:37.046Z,70.90
2023-04-11T19:41:05.573Z,71.08
2023-04-11T19:43:32.135Z,71.12
2023-04-11T19:45:58.571Z,71.25
2023-04-11T19:48:24.930Z,71.29
2023-04-11T19:50:51.351Z,71.68
2023-04-11T19:53:17.800Z,71.77
2023-04-11T19:55:44.153Z,72.03
2023-04-11T19:58:10.569Z,71.81
2023-04-11T20:00:36.937Z,72.01
2023-04-11T20:03:03.479Z,72.14
2023-04-11T20:05:30.054Z,72.34
2023-04-11T20:07:56.425Z,72.66
2023-04-11T20:10:22.868Z,72.62
2023-04-11T20:12:49.235Z,72.67
2023-04-11T20:15:15.667Z,72.79
2023-04-11T20:17:43.720Z,72.88
2023-04-11T20:20:08.686Z,72.87
2023-04-11T20:22:34.896Z,72.83
2023-04-11T20:25:01.592Z,72.88
2023-04-11T20:27:27.914Z,72.74
2023-04-11T20:29:54.344Z,72.61
2023-04-11T20:32:20.836Z,72.68
2023-04-11T20:34:47.442Z,72.74
2023-04-11T20:37:13.785Z,72.82
2023-04-11T20:39:40.173Z,72.93
2023-04-11T20:42:06.552Z,72.83
2023-04-11T20:44:32.930Z,72.91
2023-04-11T20:46:59.369Z,72.85
2023-04-11T20:49:25.797Z,72.90
2023-04-11T20:51:52.239Z,72.90
2023-04-11T20:54:18.648Z,73.00
2023-04-11T20:56:45.025Z,73.12
2023-04-11T20:59:11.421Z,73.79
2023-04-11T21:01:38.197Z,73.80
2023-04-11T21:04:04.785Z,73.20
2023-04-11T21:06:30.923Z,73.05
2023-04-11T21:08:57.323Z,73.13
2023-04-11T21:11:23.727Z,73.39
2023-04-11T21:13:50.162Z,73.31
2023-04-11T21:16:16.566Z,73.48
2023-04-11T21:18:42.961Z,73.42
2023-04-11T21:21:09.349Z,73.70
2023-04-11T21:23:35.800Z,73.85
2023-04-11T21:26:03.317Z,74.10
2023-04-11T21:28:29.709Z,74.09
2023-04-11T21:30:56.183Z,74.07
2023-04-11T21:33:22.526Z,74.20
2023-04-11T21:35:49.214Z,74.12
2023-04-11T21:38:15.590Z,74.22
2023-04-11T21:40:41.974Z,74.37
2023-04-11T21:43:08.442Z,74.65
2023-04-11T21:45:34.800Z,74.72
2023-04-11T21:48:01.218Z,74.73
2023-04-11T21:50:27.564Z,74.66
2023-04-11T21:52:53.990Z,74.61
2023-04-11T21:55:20.357Z,74.60
2023-04-11T21:57:46.805Z,74.71
2023-04-11T22:00:13.164Z,74.79
2023-04-11T22:02:39.685Z,74.93
2023-04-11T22:05:07.669Z,75.26
2023-04-11T22:07:33.667Z,75.45
2023-04-11T22:09:59.892Z,75.77
2023-04-11T22:12:26.304Z,75.77
2023-04-11T22:14:52.745Z,75.82
2023-04-11T22:17:19.116Z,75.75
2023-04-11T22:19:45.518Z,75.87
2023-04-11T22:22:11.889Z,75.98
2023-04-11T22:24:38.321Z,75.92
2023-04-11T22:27:04.721Z,76.13
2023-04-11T22:29:31.159Z,76.30
2023-04-11T22:31:57.650Z,76.19
2023-04-11T22:34:23.976Z,76.27
2023-04-11T22:36:50.361Z,76.39
2023-04-11T22:39:16.734Z,76.54
2023-04-11T22:41:43.225Z,76.75
2023-04-11T22:44:09.510Z,76.72
2023-04-11T22:46:35.965Z,76.72
2023-04-11T22:49:02.342Z,76.91
2023-04-11T22:51:28.774Z,76.78
2023-04-11T22:53:55.552Z,76.80
2023-04-11T22:56:21.616Z,76.87
2023-04-11T22:58:48.021Z,76.97
2023-04-11T23:01:17.949Z,77.21
2023-04-11T23:03:44.360Z,77.32
2023-04-11T23:06:10.874Z,77.55
2023-04-11T23:08:37.183Z,77.60
2023-04-11T23:11:06.266Z,77.67
2023-04-11T23:13:34.786Z,77.83
2023-04-11T23:16:01.178Z,77.85
2023-04-11T23:18:28.049Z,77.91
2023-04-11T23:20:54.472Z,77.90
2023-04-11T23:23:20.869Z,77.90
2023-04-11T23:25:47.284Z,77.88
2023-04-11T23:28:13.670Z,78.08
2023-04-11T23:30:40.157Z,78.10
2023-04-11T23:33:06.551Z,78.02
2023-04-11T23:35:32.930Z,78.12
2023-04-11T23:37:59.296Z,78.18
2023-04-11T23:40:25.716Z,78.26
2023-04-11T23:42:52.092Z,78.44
2023-04-11T23:45:18.475Z,78.39
2023-04-11T23:47:44.901Z,78.42
2023-04-11T23:50:11.311Z,78.49
2023-04-11T23:52:37.721Z,78.51
2023-04-11T23:55:04.088Z,78.44
2023-04-11T23:57:30.869Z,78.41
2023-04-11T23:59:57.281Z,78.49
